createdAt,value
2018-09-11T00:17:31.641Z,16.50
2018-09-11T00:20:00.807Z,16.50
2018-09-11T00:22:29.335Z,16.40
2018-09-11T00:24:58.997Z,16.40
2018-09-11T00:27:27.472Z,16.40
2018-09-11T00:29:56.026Z,16.40
2018-09-11T00:32:24.520Z,16.40
2018-09-11T00:34:53.990Z,16.40
2018-09-11T00:37:22.533Z,16.40
2018-09-11T00:39:51.223Z,16.40
2018-09-11T00:42:19.744Z,16.40
2018-09-11T00:44:48.266Z,16.30
2018-09-11T01:04:38.346Z,16.20
2018-09-11T01:07:06.973Z,16.10
2018-09-11T01:09:36.174Z,16.10
2018-09-11T01:12:05.471Z,16.10
2018-09-11T01:14:34.593Z,16.10
2018-09-11T01:17:04.292Z,16.10
2018-09-11T01:19:33.045Z,16.10
2018-09-11T01:22:01.530Z,16.10
2018-09-11T01:24:30.142Z,16.00
2018-09-11T01:26:59.825Z,16.00
2018-09-11T01:29:28.408Z,16.00
2018-09-11T01:31:56.913Z,16.00
2018-09-11T01:34:25.571Z,16.00
2018-09-11T01:36:54.121Z,15.90
2018-09-11T01:39:22.586Z,15.90
2018-09-11T01:41:51.060Z,15.90
2018-09-11T01:44:19.737Z,15.90
2018-09-11T01:46:48.817Z,15.80
2018-09-11T01:49:17.408Z,15.90
2018-09-11T01:51:45.916Z,15.80
2018-09-11T01:54:14.344Z,15.80
2018-09-11T01:56:42.986Z,15.80
2018-09-11T02:16:32.926Z,15.80
2018-09-11T02:19:01.474Z,15.70
2018-09-11T02:21:30.618Z,15.70
2018-09-11T02:23:59.098Z,15.80
2018-09-11T02:26:27.948Z,15.80
2018-09-11T02:28:56.586Z,15.80
2018-09-11T02:31:25.090Z,15.70
2018-09-11T02:33:53.647Z,15.70
2018-09-11T02:36:22.154Z,15.60
2018-09-11T02:38:50.602Z,15.60
2018-09-11T02:41:20.471Z,15.60
2018-09-11T02:43:49.609Z,15.60
2018-09-11T02:46:18.628Z,15.60
2018-09-11T02:48:47.904Z,15.50
2018-09-11T02:51:16.405Z,15.40
2018-09-11T03:11:06.954Z,15.40
2018-09-11T03:13:35.470Z,15.40
2018-09-11T03:16:04.969Z,15.40
2018-09-11T03:18:34.226Z,15.40
2018-09-11T03:21:02.771Z,15.40
2018-09-11T03:23:31.248Z,15.40
2018-09-11T03:43:21.567Z,15.10
2018-09-11T04:03:12.005Z,15.00
2018-09-11T04:05:40.588Z,15.00
2018-09-11T04:08:09.048Z,14.90
2018-09-11T04:10:38.287Z,14.90
2018-09-11T04:13:06.867Z,14.90
2018-09-11T04:32:56.830Z,14.70
2018-09-11T04:52:48.053Z,14.60
2018-09-11T04:55:16.507Z,14.60
2018-09-11T05:15:07.708Z,14.60
2018-09-11T05:17:36.277Z,14.60
2018-09-11T05:37:26.542Z,14.60
2018-09-11T05:57:15.677Z,14.80
2018-09-11T05:59:44.427Z,14.80
2018-09-11T06:02:12.850Z,14.80
2018-09-11T06:04:41.357Z,14.80
2018-09-11T06:24:32.017Z,15.00
2018-09-11T06:44:22.493Z,15.50
2018-09-11T06:46:51.043Z,15.50
2018-09-11T06:49:20.239Z,15.60
2018-09-11T06:51:49.529Z,15.60
2018-09-11T06:54:18.022Z,15.70
2018-09-11T06:56:47.037Z,15.80
2018-09-11T06:59:15.441Z,15.80
2018-09-11T07:01:44.425Z,15.90
2018-09-11T07:04:12.864Z,15.90
2018-09-11T07:06:41.328Z,16.00
2018-09-11T07:09:10.918Z,16.00
2018-09-11T07:11:39.385Z,16.10
2018-09-11T07:14:07.822Z,16.20
2018-09-11T07:16:36.341Z,16.20
2018-09-11T07:19:04.877Z,16.30
2018-09-11T07:21:33.324Z,16.30
2018-09-11T07:24:02.951Z,16.40
2018-09-11T07:26:31.479Z,16.40
2018-09-11T07:29:00.090Z,16.50
2018-09-11T07:31:28.745Z,16.50
2018-09-11T07:33:57.963Z,16.50
2018-09-11T07:36:26.534Z,16.60
2018-09-11T07:38:54.985Z,16.50
2018-09-11T07:41:24.154Z,16.60
2018-09-11T07:43:52.631Z,16.60
2018-09-11T07:46:21.342Z,16.70
2018-09-11T07:48:50.025Z,16.70
2018-09-11T07:51:18.650Z,16.80
2018-09-11T07:53:47.531Z,16.80
2018-09-11T07:56:16.093Z,16.90
2018-09-11T07:58:44.562Z,16.90
2018-09-11T08:01:13.177Z,17.00
2018-09-11T08:03:41.669Z,17.10
2018-09-11T08:06:10.210Z,17.20
2018-09-11T08:08:38.741Z,17.20
2018-09-11T08:11:07.253Z,17.30
2018-09-11T08:13:35.690Z,17.30
2018-09-11T08:16:04.216Z,17.40
2018-09-11T08:18:32.676Z,17.50
2018-09-11T08:21:01.862Z,17.60
2018-09-11T08:23:30.646Z,17.60
2018-09-11T08:25:59.109Z,17.70
2018-09-11T08:28:27.912Z,17.80
2018-09-11T08:30:57.515Z,17.90
2018-09-11T08:33:26.838Z,17.90
2018-09-11T08:35:56.662Z,18.00
2018-09-11T08:38:25.515Z,18.00
2018-09-11T08:40:54.223Z,18.10
2018-09-11T08:43:22.718Z,18.10
2018-09-11T08:45:52.040Z,18.20
2018-09-11T08:48:20.541Z,18.30
2018-09-11T08:50:49.043Z,18.30
2018-09-11T08:53:19.170Z,18.40
2018-09-11T08:55:47.711Z,18.50
2018-09-11T08:58:16.136Z,18.60
2018-09-11T09:00:44.830Z,18.60
2018-09-11T09:03:13.278Z,18.70
2018-09-11T09:05:41.863Z,18.70
2018-09-11T09:08:10.689Z,18.80
2018-09-11T09:10:39.167Z,18.90
2018-09-11T09:13:07.693Z,19.00
2018-09-11T09:15:36.319Z,19.10
2018-09-11T09:18:04.781Z,19.10
2018-09-11T09:20:33.286Z,19.10
2018-09-11T09:23:02.793Z,19.20
2018-09-11T09:25:31.283Z,19.30
2018-09-11T09:27:59.769Z,19.30
2018-09-11T09:30:28.664Z,19.40
2018-09-11T09:32:57.617Z,19.40
2018-09-11T09:35:26.166Z,19.60
2018-09-11T09:37:55.039Z,19.70
2018-09-11T09:40:23.753Z,19.70
2018-09-11T09:42:52.828Z,19.80
2018-09-11T10:02:42.986Z,20.20
2018-09-11T10:05:11.494Z,20.30
2018-09-11T10:07:39.856Z,20.40
2018-09-11T10:10:08.786Z,20.40
2018-09-11T10:12:37.291Z,20.50
2018-09-11T10:15:05.760Z,20.60
2018-09-11T10:17:36.612Z,20.60
2018-09-11T10:20:05.138Z,20.70
2018-09-11T10:22:34.050Z,20.90
2018-09-11T10:42:23.624Z,21.60
2018-09-11T11:02:14.150Z,22.30
2018-09-11T11:04:42.884Z,22.40
2018-09-11T11:07:12.081Z,22.50
2018-09-11T11:09:40.522Z,22.50
2018-09-11T11:12:09.452Z,22.80
2018-09-11T11:14:38.018Z,22.80
2018-09-11T11:17:06.620Z,22.90
2018-09-11T11:36:57.990Z,23.50
2018-09-11T11:39:26.381Z,23.60
2018-09-11T11:41:55.750Z,23.70
2018-09-11T11:44:24.462Z,23.70
2018-09-11T11:46:53.407Z,23.70
2018-09-11T11:49:22.152Z,23.90
2018-09-11T11:51:52.130Z,23.90
2018-09-11T12:11:42.681Z,24.30
2018-09-11T12:14:12.521Z,24.20
2018-09-11T12:16:41.542Z,24.20
2018-09-11T12:19:10.603Z,24.30
2018-09-11T12:21:39.271Z,24.30
2018-09-11T12:24:07.750Z,24.30
2018-09-11T12:26:36.370Z,24.20
2018-09-11T12:29:05.000Z,24.30
2018-09-11T12:31:34.218Z,24.40
2018-09-11T12:34:02.742Z,24.40
2018-09-11T12:53:53.008Z,24.60
2018-09-11T13:13:43.528Z,24.90
2018-09-11T13:16:12.782Z,25.00
2018-09-11T13:18:42.029Z,25.00
2018-09-11T13:21:10.527Z,25.00
2018-09-11T13:23:39.456Z,25.10
2018-09-11T13:26:08.713Z,25.10
2018-09-11T13:28:37.813Z,25.10
2018-09-11T13:31:06.783Z,25.10
2018-09-11T13:33:35.281Z,25.20
2018-09-11T13:36:04.414Z,25.40
2018-09-11T13:38:32.924Z,25.40
2018-09-11T13:58:22.624Z,27.20
2018-09-11T14:00:52.944Z,27.70
2018-09-11T14:20:44.216Z,30.80
2018-09-11T14:40:34.341Z,32.10
2018-09-11T14:43:03.358Z,32.30
2018-09-11T14:45:32.035Z,32.40
2018-09-11T14:48:01.562Z,32.60
2018-09-11T14:50:30.111Z,32.60
2018-09-11T15:10:28.454Z,33.60
2018-09-11T15:12:56.908Z,33.80
2018-09-11T15:15:25.487Z,33.70
2018-09-11T15:35:15.153Z,34.40
2018-09-11T15:37:44.313Z,34.30
2018-09-11T15:40:12.785Z,33.90
2018-09-11T15:42:41.530Z,33.80
2018-09-11T16:02:31.910Z,30.70
2018-09-11T16:05:00.458Z,30.40
2018-09-11T16:07:28.986Z,30.10
2018-09-11T16:09:57.544Z,29.80
2018-09-11T16:29:47.834Z,28.00
2018-09-11T16:32:17.034Z,27.80
2018-09-11T16:34:45.825Z,27.60
2018-09-11T16:37:14.590Z,27.50
2018-09-11T16:39:43.579Z,27.30
2018-09-11T16:42:12.035Z,27.10
2018-09-11T17:02:03.097Z,25.40
2018-09-11T17:04:31.552Z,25.30
2018-09-11T17:07:00.083Z,25.10
2018-09-11T17:26:43.063Z,24.00
2018-09-11T17:29:12.311Z,23.90
2018-09-11T17:31:40.933Z,23.80
2018-09-11T17:34:10.028Z,23.70
2018-09-11T17:36:38.488Z,23.60
2018-09-11T17:39:09.446Z,23.50
2018-09-11T17:41:38.652Z,23.40
2018-09-11T18:01:29.074Z,22.80
2018-09-11T18:03:57.756Z,22.70
2018-09-11T18:06:28.630Z,22.60
2018-09-11T18:08:57.555Z,22.50
2018-09-11T18:11:26.383Z,22.40
2018-09-11T18:13:54.972Z,22.40
2018-09-11T18:33:45.207Z,22.10
2018-09-11T18:36:13.629Z,22.00
2018-09-11T18:55:57.005Z,21.40
2018-09-11T18:58:25.474Z,21.40
2018-09-11T19:00:54.757Z,21.40
2018-09-11T19:03:24.392Z,21.30
2018-09-11T19:05:52.797Z,21.30
2018-09-11T19:08:21.425Z,21.20
2018-09-11T19:10:50.632Z,21.20
2018-09-11T19:13:19.096Z,21.10
2018-09-11T19:15:48.566Z,21.10
2018-09-11T19:18:17.766Z,21.10
2018-09-11T19:38:08.078Z,20.60
2018-09-11T19:40:36.665Z,20.50
2018-09-11T19:43:05.174Z,20.40
2018-09-11T19:45:34.299Z,20.40
2018-09-11T19:48:02.810Z,20.40
2018-09-11T19:50:31.294Z,20.30
2018-09-11T19:52:59.829Z,20.30
2018-09-11T19:55:28.927Z,20.30
2018-09-11T20:15:17.295Z,20.00
2018-09-11T20:17:47.474Z,19.90
2018-09-11T20:37:37.520Z,19.60
2018-09-11T20:40:06.296Z,19.60
2018-09-11T20:42:34.835Z,19.60
2018-09-11T20:45:03.422Z,19.50
2018-09-11T20:47:33.651Z,19.50
2018-09-11T21:07:22.899Z,19.20
2018-09-11T21:09:52.281Z,19.20
2018-09-11T21:12:20.732Z,19.10
2018-09-11T21:14:49.308Z,19.10
2018-09-11T21:17:18.502Z,19.10
2018-09-11T21:19:46.953Z,19.10
2018-09-11T21:39:37.455Z,18.80
2018-09-11T21:59:27.412Z,18.50
2018-09-11T22:02:00.405Z,18.50
2018-09-11T22:04:28.851Z,18.40
2018-09-11T22:06:57.994Z,18.30
2018-09-11T22:09:26.494Z,18.40
2018-09-11T22:11:55.070Z,18.40
2018-09-11T22:14:23.634Z,18.30
2018-09-11T22:34:14.357Z,18.20
2018-09-11T22:36:42.806Z,18.20
2018-09-11T22:39:11.401Z,18.20
2018-09-11T22:41:41.070Z,18.10
2018-09-11T22:44:09.526Z,18.10
2018-09-11T22:46:38.041Z,18.10
2018-09-11T22:49:07.381Z,18.10
2018-09-11T22:51:35.914Z,18.10
2018-09-11T22:54:04.546Z,18.10
2018-09-11T22:56:34.163Z,18.00
2018-09-11T22:59:03.956Z,18.00
2018-09-11T23:01:32.447Z,17.90
2018-09-11T23:04:01.321Z,17.90
2018-09-11T23:23:50.702Z,17.70
2018-09-11T23:26:20.183Z,17.70
2018-09-11T23:28:48.738Z,17.70
2018-09-11T23:31:17.259Z,17.60
2018-09-11T23:33:45.959Z,17.60
2018-09-11T23:36:14.433Z,17.60
2018-09-11T23:38:43.558Z,17.60
2018-09-11T23:41:12.865Z,17.50
2018-09-11T23:43:41.338Z,17.40
2018-09-11T23:46:09.801Z,17.40
